createdAt,value
2023-01-08T00:01:50.236Z,4.50
2023-01-08T00:09:24.197Z,4.10
2023-01-08T00:16:59.435Z,3.90
2023-01-08T00:24:33.267Z,3.83
2023-01-08T00:32:08.460Z,3.47
2023-01-08T00:39:42.257Z,3.85
2023-01-08T00:47:18.719Z,3.97
2023-01-08T00:54:52.441Z,3.08
2023-01-08T01:02:29.288Z,4.03
2023-01-08T01:10:03.185Z,3.38
2023-01-08T01:17:40.269Z,3.80
2023-01-08T01:25:13.999Z,3.78
2023-01-08T01:32:49.231Z,4.75
2023-01-08T01:40:23.124Z,3.75
2023-01-08T01:48:00.870Z,4.20
2023-01-08T01:55:36.516Z,3.90
2023-01-08T02:03:15.416Z,4.10
2023-01-08T02:10:54.659Z,4.22
2023-01-08T02:18:38.998Z,4.05
2023-01-08T02:26:18.694Z,5.17
2023-01-08T02:33:53.646Z,5.00
2023-01-08T02:41:37.312Z,4.22
2023-01-08T02:49:14.464Z,4.35
2023-01-08T02:56:57.163Z,5.15
2023-01-08T03:04:36.747Z,4.70
2023-01-08T03:12:20.633Z,4.85
2023-01-08T03:19:56.446Z,5.00
2023-01-08T03:27:34.860Z,5.70
2023-01-08T03:35:11.654Z,5.88
2023-01-08T03:42:46.908Z,6.40
2023-01-08T03:50:24.799Z,6.10
2023-01-08T03:57:59.974Z,6.47
2023-01-08T04:05:33.736Z,6.82
2023-01-08T04:13:08.900Z,6.40
2023-01-08T04:20:46.582Z,7.82
2023-01-08T04:28:22.942Z,6.22
2023-01-08T04:35:57.900Z,7.05
2023-01-08T04:43:33.541Z,6.30
2023-01-08T04:51:07.384Z,6.10
2023-01-08T04:58:42.916Z,7.27
2023-01-08T05:06:16.831Z,7.00
2023-01-08T05:13:53.732Z,6.30
2023-01-08T05:21:27.576Z,6.68
2023-01-08T05:29:02.828Z,7.10
2023-01-08T05:36:36.924Z,5.65
2023-01-08T05:44:12.767Z,7.27
2023-01-08T05:51:46.815Z,6.72
2023-01-08T05:59:22.036Z,6.63
2023-01-08T06:06:55.884Z,7.13
2023-01-08T06:14:31.579Z,6.77
2023-01-08T06:22:05.383Z,6.63
2023-01-08T06:29:40.913Z,6.23
2023-01-08T06:37:15.043Z,5.55
2023-01-08T06:44:50.409Z,6.33
2023-01-08T06:52:24.249Z,5.93
2023-01-08T06:59:59.614Z,5.35
2023-01-08T07:07:33.989Z,5.55
2023-01-08T07:15:10.446Z,6.15
2023-01-08T07:22:44.329Z,5.57
2023-01-08T07:30:29.440Z,7.13
2023-01-08T07:38:04.613Z,5.22
2023-01-08T07:45:40.396Z,5.63
2023-01-08T07:53:17.417Z,4.90
2023-01-08T08:00:52.709Z,4.53
2023-01-08T08:08:26.635Z,5.25
2023-01-08T08:16:05.209Z,4.67
2023-01-08T08:23:39.022Z,5.35
2023-01-08T08:31:14.474Z,5.70
2023-01-08T08:38:48.942Z,5.80
2023-01-08T08:46:25.527Z,4.93
2023-01-08T08:53:59.629Z,5.35
2023-01-08T09:01:34.965Z,5.27
2023-01-08T09:09:11.498Z,5.18
2023-01-08T09:16:46.826Z,4.50
2023-01-08T09:24:20.987Z,5.93
2023-01-08T09:31:57.437Z,4.77
2023-01-08T09:39:31.703Z,4.90
2023-01-08T09:47:22.290Z,5.10
2023-01-08T09:54:56.162Z,4.50
2023-01-08T10:02:41.905Z,5.30
2023-01-08T10:10:21.394Z,5.07
2023-01-08T10:18:03.633Z,4.68
2023-01-08T10:25:49.442Z,4.60
2023-01-08T10:33:26.434Z,5.32
2023-01-08T10:41:02.782Z,5.95
2023-01-08T10:48:41.639Z,5.70
2023-01-08T10:56:22.205Z,5.88
2023-01-08T11:04:00.232Z,6.03
2023-01-08T11:11:36.087Z,6.78
2023-01-08T11:19:21.139Z,5.95
2023-01-08T11:26:58.883Z,6.30
2023-01-08T11:34:40.773Z,5.80
2023-01-08T11:42:28.119Z,7.40
2023-01-08T11:50:23.182Z,6.45
2023-01-08T11:58:12.110Z,7.20
2023-01-08T12:05:54.299Z,6.80
2023-01-08T12:13:53.556Z,6.82
2023-01-08T12:21:33.809Z,6.53
2023-01-08T12:29:26.624Z,7.03
2023-01-08T12:37:09.269Z,5.93
2023-01-08T12:44:45.071Z,6.13
2023-01-08T12:52:27.252Z,5.68
2023-01-08T13:00:04.658Z,5.53
2023-01-08T13:07:45.389Z,5.82
2023-01-08T13:15:22.794Z,7.28
2023-01-08T13:23:00.454Z,6.45
2023-01-08T13:30:42.423Z,6.95
2023-01-08T13:38:19.663Z,6.40
2023-01-08T13:46:09.314Z,5.93
2023-01-08T13:53:46.122Z,6.38
2023-01-08T14:01:21.186Z,8.82
2023-01-08T14:08:58.802Z,7.25
2023-01-08T14:16:33.695Z,7.07
2023-01-08T14:24:17.322Z,6.88
2023-01-08T14:31:53.673Z,6.88
2023-01-08T14:39:35.201Z,7.32
2023-01-08T14:47:19.147Z,8.00
2023-01-08T14:54:59.808Z,7.72
2023-01-08T15:02:37.767Z,7.32
2023-01-08T15:10:38.486Z,7.22
2023-01-08T15:18:13.741Z,7.38
2023-01-08T15:25:49.067Z,7.25
2023-01-08T15:33:24.815Z,7.07
2023-01-08T15:40:59.981Z,7.38
2023-01-08T15:48:33.934Z,7.53
2023-01-08T15:56:09.206Z,8.27
2023-01-08T16:03:43.424Z,8.52
2023-01-08T16:11:19.764Z,9.43
2023-01-08T16:18:53.654Z,9.40
2023-01-08T16:26:28.876Z,8.03
2023-01-08T16:34:03.379Z,7.72
2023-01-08T16:41:38.802Z,9.43
2023-01-08T16:49:12.924Z,8.63
2023-01-08T16:56:48.412Z,9.33
2023-01-08T17:04:22.415Z,8.20
2023-01-08T17:11:57.653Z,7.73
2023-01-08T17:19:31.797Z,8.50
2023-01-08T17:27:06.998Z,8.27
2023-01-08T17:34:41.279Z,7.88
2023-01-08T17:42:28.836Z,8.53
2023-01-08T17:50:06.111Z,7.82
2023-01-08T17:57:41.346Z,7.32
2023-01-08T18:05:15.383Z,7.80
2023-01-08T18:12:50.892Z,7.43
2023-01-08T18:20:25.093Z,6.55
2023-01-08T18:28:00.217Z,7.37
2023-01-08T18:35:34.211Z,6.78
2023-01-08T18:43:09.436Z,6.40
2023-01-08T18:50:43.963Z,6.50
2023-01-08T18:58:19.232Z,6.22
2023-01-08T19:05:52.960Z,6.07
2023-01-08T19:13:28.276Z,7.00
2023-01-08T19:21:02.433Z,5.85
2023-01-08T19:28:37.617Z,6.07
2023-01-08T19:36:14.245Z,5.85
2023-01-08T19:43:49.296Z,5.53
2023-01-08T19:51:24.932Z,5.15
2023-01-08T19:59:01.219Z,5.03
2023-01-08T20:06:35.080Z,5.13
2023-01-08T20:14:10.343Z,4.63
2023-01-08T20:21:44.391Z,4.63
2023-01-08T20:29:19.724Z,5.90
2023-01-08T20:36:53.914Z,5.82
2023-01-08T20:44:29.309Z,6.10
2023-01-08T20:52:04.405Z,6.07
2023-01-08T20:59:39.967Z,6.18
2023-01-08T21:07:14.012Z,6.40
2023-01-08T21:14:49.287Z,6.97
2023-01-08T21:22:23.157Z,6.85
2023-01-08T21:29:58.473Z,6.63
2023-01-08T21:37:32.419Z,6.70
2023-01-08T21:45:27.593Z,7.57
2023-01-08T21:53:18.752Z,7.53
2023-01-08T22:00:54.072Z,7.60
2023-01-08T22:08:31.255Z,5.70
2023-01-08T22:16:09.820Z,6.50
2023-01-08T22:23:43.622Z,6.47
2023-01-08T22:31:18.859Z,6.05
2023-01-08T22:38:52.913Z,7.45
2023-01-08T22:46:28.335Z,6.50
2023-01-08T22:54:02.512Z,8.02
2023-01-08T23:01:37.653Z,7.10
2023-01-08T23:09:11.807Z,6.63
2023-01-08T23:16:48.362Z,5.57
2023-01-08T23:24:22.270Z,5.45
2023-01-08T23:31:58.022Z,6.27
2023-01-08T23:39:31.935Z,5.35
2023-01-08T23:47:07.176Z,7.67
2023-01-08T23:54:41.339Z,5.97
